createdAt,value
2019-02-14T00:00:07.192Z,99.99
2019-02-14T00:01:15.252Z,99.99
2019-02-14T00:02:23.300Z,99.99
2019-02-14T00:03:31.382Z,99.99
2019-02-14T00:04:39.418Z,99.99
2019-02-14T00:05:47.456Z,99.99
2019-02-14T00:06:55.505Z,99.99
2019-02-14T00:08:03.712Z,99.99
2019-02-14T00:09:11.626Z,99.99
2019-02-14T00:10:19.669Z,99.99
2019-02-14T00:11:27.723Z,99.99
2019-02-14T00:12:35.787Z,99.99
2019-02-14T00:13:43.831Z,99.99
2019-02-14T00:14:51.847Z,99.99
2019-02-14T00:15:59.937Z,99.99
2019-02-14T00:17:07.974Z,99.99
2019-02-14T00:18:16.039Z,99.99
2019-02-14T00:19:24.092Z,99.99
2019-02-14T00:20:32.119Z,99.99
2019-02-14T00:21:40.191Z,99.99
2019-02-14T00:22:48.443Z,99.99
2019-02-14T00:23:56.303Z,99.99
2019-02-14T00:25:04.343Z,99.99
2019-02-14T00:26:12.391Z,99.99
2019-02-14T00:27:20.452Z,99.99
2019-02-14T00:28:28.513Z,99.99
2019-02-14T00:29:36.559Z,99.99
2019-02-14T00:30:44.664Z,99.99
2019-02-14T00:31:52.688Z,99.99
2019-02-14T00:33:00.713Z,99.99
2019-02-14T00:34:08.769Z,99.99
2019-02-14T00:35:23.374Z,99.99
2019-02-14T00:36:24.876Z,99.99
2019-02-14T00:37:32.938Z,99.99
2019-02-14T00:38:40.993Z,99.99
2019-02-14T00:39:49.026Z,99.99
2019-02-14T00:40:57.074Z,99.99
2019-02-14T00:42:05.138Z,99.99
2019-02-14T00:43:13.190Z,99.99
2019-02-14T00:44:21.236Z,99.99
2019-02-14T00:45:29.293Z,99.99
2019-02-14T00:46:37.344Z,99.99
2019-02-14T00:47:45.398Z,99.99
2019-02-14T00:48:53.447Z,99.99
2019-02-14T00:50:01.493Z,99.99
2019-02-14T00:51:09.552Z,99.99
2019-02-14T00:52:17.598Z,99.99
2019-02-14T00:53:25.697Z,99.99
2019-02-14T00:54:33.735Z,99.99
2019-02-14T00:55:41.743Z,99.99
2019-02-14T00:56:49.812Z,99.99
2019-02-14T00:57:57.863Z,99.99
2019-02-14T00:59:05.907Z,99.99
2019-02-14T01:00:13.986Z,99.99
2019-02-14T01:01:22.002Z,99.99
2019-02-14T01:02:30.078Z,99.99
2019-02-14T01:03:38.121Z,99.52
2019-02-14T01:04:46.181Z,98.76
2019-02-14T01:05:54.269Z,99.71
2019-02-14T01:07:02.268Z,99.99
2019-02-14T01:08:10.327Z,99.99
2019-02-14T01:09:18.386Z,99.99
2019-02-14T01:10:26.430Z,99.99
2019-02-14T01:11:34.489Z,99.99
2019-02-14T01:12:42.542Z,99.99
2019-02-14T01:13:50.603Z,99.99
2019-02-14T01:14:58.650Z,99.99
2019-02-14T01:16:06.757Z,99.99
2019-02-14T01:17:14.736Z,99.99
2019-02-14T01:18:22.796Z,99.99
2019-02-14T01:19:30.860Z,99.71
2019-02-14T01:20:38.894Z,99.46
2019-02-14T01:21:46.957Z,98.71
2019-02-14T01:22:55.010Z,99.99
2019-02-14T01:24:03.055Z,98.52
2019-02-14T01:25:11.104Z,97.20
2019-02-14T01:26:19.186Z,96.54
2019-02-14T01:27:27.209Z,97.29
2019-02-14T01:28:35.271Z,96.54
2019-02-14T01:29:43.313Z,96.06
2019-02-14T01:30:51.363Z,95.59
2019-02-14T01:31:59.421Z,96.63
2019-02-14T01:33:07.477Z,95.12
2019-02-14T01:34:15.533Z,96.06
2019-02-14T01:35:23.591Z,95.68
2019-02-14T01:36:31.620Z,97.58
2019-02-14T01:37:39.692Z,97.01
2019-02-14T01:38:47.737Z,96.73
2019-02-14T01:39:55.788Z,98.14
2019-02-14T01:41:03.854Z,98.61
2019-02-14T01:42:11.886Z,98.90
2019-02-14T01:43:19.937Z,96.54
2019-02-14T01:44:27.998Z,95.40
2019-02-14T01:45:36.047Z,96.44
2019-02-14T01:46:44.090Z,99.08
2019-02-14T01:47:52.128Z,99.99
2019-02-14T01:49:00.191Z,99.56
2019-02-14T01:50:08.256Z,97.77
2019-02-14T01:51:16.298Z,96.44
2019-02-14T01:52:24.351Z,96.25
2019-02-14T01:53:32.401Z,97.20
2019-02-14T01:54:40.907Z,97.39
2019-02-14T01:55:48.527Z,98.05
2019-02-14T01:56:56.572Z,98.33
2019-02-14T01:58:04.611Z,98.14
2019-02-14T01:59:12.666Z,98.80
2019-02-14T02:00:20.715Z,99.56
2019-02-14T02:01:28.756Z,99.46
2019-02-14T02:02:36.834Z,98.05
2019-02-14T02:03:44.869Z,98.33
2019-02-14T02:04:52.939Z,97.58
2019-02-14T02:06:00.970Z,97.96
2019-02-14T02:07:09.049Z,98.71
2019-02-14T02:08:17.078Z,99.27
2019-02-14T02:09:25.149Z,98.90
2019-02-14T02:10:33.191Z,99.56
2019-02-14T02:11:41.217Z,98.33
2019-02-14T02:12:49.291Z,97.77
2019-02-14T02:13:57.342Z,97.48
2019-02-14T02:15:05.394Z,97.67
2019-02-14T02:16:13.506Z,96.73
2019-02-14T02:17:21.487Z,96.54
2019-02-14T02:18:29.551Z,97.39
2019-02-14T02:19:37.604Z,95.87
2019-02-14T02:20:45.666Z,95.50
2019-02-14T02:21:53.694Z,94.84
2019-02-14T02:23:01.730Z,94.46
2019-02-14T02:24:09.809Z,94.93
2019-02-14T02:25:17.848Z,95.87
2019-02-14T02:26:25.918Z,95.78
2019-02-14T02:27:33.967Z,96.54
2019-02-14T02:28:42.052Z,96.82
2019-02-14T02:29:50.075Z,98.33
2019-02-14T02:30:58.119Z,97.39
2019-02-14T02:32:06.166Z,96.63
2019-02-14T02:33:14.217Z,94.74
2019-02-14T02:34:22.250Z,93.32
2019-02-14T02:35:30.325Z,93.42
2019-02-14T02:36:38.365Z,93.51
2019-02-14T02:37:46.421Z,95.31
2019-02-14T02:38:54.509Z,97.10
2019-02-14T02:40:02.519Z,97.48
2019-02-14T02:41:10.591Z,96.16
2019-02-14T02:42:18.639Z,98.14
2019-02-14T02:43:26.681Z,98.14
2019-02-14T02:44:34.738Z,96.91
2019-02-14T02:45:42.792Z,97.96
2019-02-14T02:46:50.859Z,97.39
2019-02-14T02:47:58.896Z,96.63
2019-02-14T02:49:06.952Z,96.06
2019-02-14T02:50:14.991Z,96.91
2019-02-14T02:51:23.042Z,97.96
2019-02-14T02:52:31.096Z,98.24
2019-02-14T02:53:39.165Z,98.43
2019-02-14T02:54:47.201Z,98.71
2019-02-14T02:55:55.266Z,98.33
2019-02-14T02:57:03.302Z,98.71
2019-02-14T02:58:11.343Z,99.56
2019-02-14T02:59:19.410Z,99.27
2019-02-14T03:00:27.467Z,99.18
2019-02-14T03:01:35.506Z,98.52
2019-02-14T03:02:43.559Z,97.29
2019-02-14T03:03:51.583Z,97.39
2019-02-14T03:04:59.675Z,98.05
2019-02-14T03:06:10.374Z,97.10
2019-02-14T03:07:15.773Z,97.58
2019-02-14T03:08:23.830Z,96.06
2019-02-14T03:09:31.856Z,96.16
2019-02-14T03:10:39.925Z,95.59
2019-02-14T03:11:47.976Z,95.21
2019-02-14T03:12:56.035Z,94.46
2019-02-14T03:14:04.086Z,94.84
2019-02-14T03:15:12.111Z,94.27
2019-02-14T03:16:20.174Z,93.89
2019-02-14T03:17:28.228Z,93.80
2019-02-14T03:18:36.291Z,94.37
2019-02-14T03:19:44.365Z,94.18
2019-02-14T03:20:52.390Z,93.51
2019-02-14T03:22:00.446Z,94.27
2019-02-14T03:23:08.497Z,93.47
2019-02-14T03:24:16.541Z,93.42
2019-02-14T03:25:24.583Z,93.32
2019-02-14T03:26:32.655Z,93.75
2019-02-14T03:27:40.689Z,93.37
2019-02-14T03:28:48.751Z,92.61
2019-02-14T03:29:56.806Z,92.33
2019-02-14T03:31:04.890Z,92.52
2019-02-14T03:32:12.917Z,93.47
2019-02-14T03:33:20.969Z,94.22
2019-02-14T03:34:29.003Z,93.47
2019-02-14T03:35:37.064Z,93.09
2019-02-14T03:36:45.111Z,92.05
2019-02-14T03:37:53.179Z,91.49
2019-02-14T03:39:01.216Z,91.67
2019-02-14T03:40:09.426Z,91.01
2019-02-14T03:41:17.289Z,91.39
2019-02-14T03:42:25.365Z,91.77
2019-02-14T03:43:33.422Z,92.43
2019-02-14T03:44:41.468Z,92.52
2019-02-14T03:45:49.518Z,93.28
2019-02-14T03:46:57.571Z,93.66
2019-02-14T03:48:05.649Z,94.41
2019-02-14T03:49:13.691Z,93.94
2019-02-14T03:50:21.704Z,93.84
2019-02-14T03:51:29.775Z,91.96
2019-02-14T03:52:37.861Z,90.45
2019-02-14T03:53:45.877Z,91.39
2019-02-14T03:54:53.945Z,91.77
2019-02-14T03:56:01.984Z,92.33
2019-02-14T03:57:10.043Z,92.14
2019-02-14T03:58:18.094Z,93.56
2019-02-14T03:59:26.153Z,93.18
2019-02-14T04:00:34.187Z,92.14
2019-02-14T04:01:42.254Z,90.73
2019-02-14T04:02:50.285Z,90.07
2019-02-14T04:03:58.354Z,89.69
2019-02-14T04:05:06.391Z,89.22
2019-02-14T04:06:14.452Z,89.97
2019-02-14T04:07:22.500Z,89.78
2019-02-14T04:08:30.551Z,88.75
2019-02-14T04:09:38.606Z,88.56
2019-02-14T04:10:46.658Z,89.03
2019-02-14T04:11:54.689Z,88.28
2019-02-14T04:13:02.754Z,88.84
2019-02-14T04:14:10.803Z,87.14
2019-02-14T04:15:18.869Z,86.29
2019-02-14T04:16:26.924Z,85.72
2019-02-14T04:17:34.965Z,85.25
2019-02-14T04:18:43.016Z,85.53
2019-02-14T04:19:51.062Z,85.63
2019-02-14T04:20:59.128Z,85.72
2019-02-14T04:22:07.168Z,85.82
2019-02-14T04:23:15.245Z,85.91
2019-02-14T04:24:23.277Z,84.31
2019-02-14T04:25:31.316Z,84.97
2019-02-14T04:26:39.363Z,83.65
2019-02-14T04:27:47.423Z,83.08
2019-02-14T04:28:55.482Z,82.80
2019-02-14T04:30:03.551Z,83.46
2019-02-14T04:31:11.559Z,84.41
2019-02-14T04:32:19.619Z,84.41
2019-02-14T04:33:27.710Z,85.16
2019-02-14T04:34:35.754Z,85.25
2019-02-14T04:35:43.786Z,87.52
2019-02-14T04:36:51.809Z,87.24
2019-02-14T04:37:59.892Z,86.86
2019-02-14T04:39:07.940Z,86.48
2019-02-14T04:40:15.984Z,87.05
2019-02-14T04:41:24.039Z,87.62
2019-02-14T04:42:32.064Z,86.57
2019-02-14T04:43:40.145Z,86.38
2019-02-14T04:44:48.186Z,86.76
2019-02-14T04:45:56.240Z,87.14
2019-02-14T04:47:04.298Z,86.95
2019-02-14T04:48:12.323Z,88.56
2019-02-14T04:49:20.404Z,88.18
2019-02-14T04:50:28.450Z,88.37
2019-02-14T04:51:36.504Z,88.75
2019-02-14T04:52:44.559Z,88.56
2019-02-14T04:53:52.588Z,87.24
2019-02-14T04:55:00.684Z,86.38
2019-02-14T04:56:08.715Z,86.38
2019-02-14T04:57:16.763Z,85.72
2019-02-14T04:58:24.806Z,85.72
2019-02-14T04:59:32.853Z,86.57
2019-02-14T05:00:40.930Z,86.38
2019-02-14T05:01:48.960Z,85.72
2019-02-14T05:02:57.007Z,85.53
2019-02-14T05:04:05.063Z,86.57
2019-02-14T05:05:13.141Z,86.38
2019-02-14T05:06:21.173Z,86.57
2019-02-14T05:07:29.209Z,86.76
2019-02-14T05:08:37.271Z,87.99
2019-02-14T05:09:45.311Z,88.28
2019-02-14T05:10:53.368Z,87.43
2019-02-14T05:12:01.402Z,87.33
2019-02-14T05:13:09.481Z,87.24
2019-02-14T05:14:17.509Z,87.05
2019-02-14T05:15:25.588Z,88.09
2019-02-14T05:16:33.619Z,86.86
2019-02-14T05:17:41.666Z,85.35
2019-02-14T05:18:49.711Z,85.25
2019-02-14T05:19:57.791Z,85.06
2019-02-14T05:21:05.829Z,85.06
2019-02-14T05:22:13.863Z,85.16
2019-02-14T05:23:21.918Z,85.44
2019-02-14T05:24:29.968Z,85.44
2019-02-14T05:25:38.037Z,85.91
2019-02-14T05:26:46.083Z,85.53
2019-02-14T05:27:54.145Z,85.16
2019-02-14T05:29:02.159Z,85.16
2019-02-14T05:30:10.239Z,85.44
2019-02-14T05:31:18.293Z,85.63
2019-02-14T05:32:26.331Z,84.97
2019-02-14T05:33:34.392Z,84.78
2019-02-14T05:34:42.433Z,84.12
2019-02-14T05:35:50.488Z,84.97
2019-02-14T05:36:58.542Z,84.97
2019-02-14T05:38:06.598Z,84.22
2019-02-14T05:39:14.645Z,83.27
2019-02-14T05:40:22.688Z,81.85
2019-02-14T05:41:30.760Z,80.63
2019-02-14T05:42:38.818Z,81.20
2019-02-14T05:43:46.852Z,81.10
2019-02-14T05:44:54.897Z,81.01
2019-02-14T05:46:02.982Z,81.95
2019-02-14T05:47:10.993Z,82.61
2019-02-14T05:48:19.056Z,81.85
2019-02-14T05:49:27.088Z,82.32
2019-02-14T05:50:35.163Z,81.95
2019-02-14T05:51:43.211Z,83.27
2019-02-14T05:52:51.261Z,83.74
2019-02-14T05:53:59.314Z,84.22
2019-02-14T05:55:07.363Z,84.78
2019-02-14T05:56:15.413Z,84.41
2019-02-14T05:57:23.478Z,84.97
2019-02-14T05:58:31.526Z,86.01
2019-02-14T05:59:39.571Z,85.72
2019-02-14T06:00:47.617Z,85.35
2019-02-14T06:01:55.655Z,85.53
2019-02-14T06:03:03.720Z,85.16
2019-02-14T06:04:11.758Z,84.12
2019-02-14T06:05:19.833Z,83.74
2019-02-14T06:06:27.884Z,81.48
2019-02-14T06:07:35.925Z,81.43
2019-02-14T06:08:43.991Z,82.42
2019-02-14T06:09:52.010Z,82.32
2019-02-14T06:11:00.120Z,82.80
2019-02-14T06:12:08.113Z,84.41
2019-02-14T06:13:16.188Z,85.44
2019-02-14T06:14:24.231Z,83.70
2019-02-14T06:15:32.506Z,81.20
2019-02-14T06:16:40.335Z,79.59
2019-02-14T06:17:48.367Z,80.15
2019-02-14T06:18:56.471Z,80.06
2019-02-14T06:20:04.487Z,82.32
2019-02-14T06:21:12.521Z,82.80
2019-02-14T06:22:20.585Z,82.89
2019-02-14T06:23:30.133Z,82.80
2019-02-14T06:24:37.693Z,81.67
2019-02-14T06:25:48.832Z,81.67
2019-02-14T06:27:23.919Z,81.85
2019-02-14T06:28:09.015Z,81.38
2019-02-14T06:29:10.890Z,81.85
2019-02-14T06:30:37.423Z,82.99
2019-02-14T06:31:27.991Z,83.27
2019-02-14T06:32:36.078Z,84.31
2019-02-14T06:33:44.412Z,84.69
2019-02-14T06:34:54.579Z,85.35
2019-02-14T06:36:01.202Z,86.29
2019-02-14T06:37:09.778Z,86.29
2019-02-14T06:38:18.289Z,86.29
2019-02-14T06:39:26.647Z,85.44
2019-02-14T06:40:35.464Z,84.97
2019-02-14T06:41:43.456Z,83.93
2019-02-14T06:42:51.484Z,80.15
2019-02-14T06:43:59.547Z,78.08
2019-02-14T06:45:07.606Z,78.45
2019-02-14T06:46:15.655Z,78.27
2019-02-14T06:47:23.688Z,78.64
2019-02-14T06:48:31.740Z,78.27
2019-02-14T06:49:39.812Z,78.45
2019-02-14T06:50:47.868Z,79.21
2019-02-14T06:51:55.927Z,81.01
2019-02-14T06:53:04.398Z,81.20
2019-02-14T06:54:12.031Z,81.76
2019-02-14T06:55:20.079Z,81.67
2019-02-14T06:56:28.104Z,80.82
2019-02-14T06:57:36.172Z,79.68
2019-02-14T06:58:44.235Z,79.21
2019-02-14T06:59:52.250Z,79.11
2019-02-14T07:01:00.323Z,79.68
2019-02-14T07:02:08.375Z,79.30
2019-02-14T07:03:16.414Z,80.06
2019-02-14T07:04:24.471Z,80.44
2019-02-14T07:05:32.527Z,81.29
2019-02-14T07:06:40.570Z,81.10
2019-02-14T07:07:48.605Z,81.20
2019-02-14T07:08:56.677Z,81.38
2019-02-14T07:10:04.725Z,81.48
2019-02-14T07:11:12.779Z,81.76
2019-02-14T07:12:20.822Z,81.38
2019-02-14T07:13:28.884Z,81.67
2019-02-14T07:14:36.944Z,81.48
2019-02-14T07:15:44.997Z,83.08
2019-02-14T07:16:53.028Z,83.84
2019-02-14T07:18:01.086Z,84.78
2019-02-14T07:19:09.130Z,84.88
2019-02-14T07:20:17.217Z,87.24
2019-02-14T07:21:25.245Z,89.22
2019-02-14T07:22:33.285Z,90.45
2019-02-14T07:23:41.341Z,91.15
2019-02-14T07:24:49.396Z,91.53
2019-02-14T07:25:57.442Z,91.82
2019-02-14T07:27:05.492Z,92.57
2019-02-14T07:28:13.552Z,93.42
2019-02-14T07:29:21.611Z,94.93
2019-02-14T07:30:29.650Z,95.59
2019-02-14T07:31:37.696Z,97.39
2019-02-14T07:32:45.801Z,97.48
2019-02-14T07:33:53.806Z,97.01
2019-02-14T07:35:01.829Z,97.48
2019-02-14T07:36:09.989Z,98.71
2019-02-14T07:37:26.308Z,99.56
2019-02-14T07:38:26.015Z,98.24
2019-02-14T07:39:34.076Z,98.05
2019-02-14T07:40:42.119Z,97.67
2019-02-14T07:41:50.166Z,99.65
2019-02-14T07:42:58.248Z,99.99
2019-02-14T07:44:06.390Z,99.08
2019-02-14T07:45:14.404Z,99.99
2019-02-14T07:46:22.836Z,99.99
2019-02-14T07:47:30.777Z,99.99
2019-02-14T07:48:38.507Z,99.99
2019-02-14T07:49:46.522Z,99.99
2019-02-14T07:50:54.590Z,99.99
2019-02-14T07:52:02.638Z,99.99
2019-02-14T07:53:10.712Z,99.99
2019-02-14T07:54:18.799Z,99.99
2019-02-14T07:55:27.429Z,99.99
2019-02-14T07:56:34.900Z,99.99
2019-02-14T07:57:43.113Z,99.99
2019-02-14T07:58:51.218Z,99.99
2019-02-14T07:59:59.380Z,99.99
2019-02-14T08:01:07.063Z,99.99
2019-02-14T08:02:15.102Z,99.99
2019-02-14T08:03:23.149Z,99.99
2019-02-14T08:04:31.275Z,99.99
2019-02-14T08:05:39.409Z,99.99
2019-02-14T08:06:47.827Z,99.99
2019-02-14T08:07:55.846Z,99.99
2019-02-14T08:09:03.896Z,99.99
2019-02-14T08:10:11.812Z,99.99
2019-02-14T08:11:19.517Z,99.99
2019-02-14T08:12:27.579Z,99.99
2019-02-14T08:13:35.823Z,99.99
2019-02-14T08:14:43.981Z,99.99
2019-02-14T08:15:51.813Z,99.99
2019-02-14T08:16:59.905Z,99.99
2019-02-14T08:18:07.982Z,99.99
2019-02-14T08:19:16.046Z,99.99
2019-02-14T08:20:23.948Z,99.99
2019-02-14T08:21:32.207Z,99.99
2019-02-14T08:22:40.048Z,99.99
2019-02-14T08:23:48.118Z,99.99
2019-02-14T08:24:56.509Z,99.99
2019-02-14T08:26:10.527Z,99.99
2019-02-14T08:27:12.548Z,99.99
2019-02-14T08:28:20.319Z,99.99
2019-02-14T08:29:28.411Z,99.99
2019-02-14T08:30:36.765Z,99.99
2019-02-14T08:31:44.467Z,99.99
2019-02-14T08:32:52.516Z,99.99
2019-02-14T08:34:00.583Z,99.99
2019-02-14T08:35:08.829Z,99.99
2019-02-14T08:36:16.678Z,99.99
2019-02-14T08:37:24.746Z,99.99
2019-02-14T08:38:32.802Z,99.99
2019-02-14T08:39:40.865Z,99.99
2019-02-14T08:40:48.905Z,99.99
2019-02-14T08:41:56.957Z,99.99
2019-02-14T08:43:05.003Z,99.99
2019-02-14T08:44:13.068Z,99.99
2019-02-14T08:45:21.135Z,99.99
2019-02-14T08:46:29.174Z,99.99
2019-02-14T08:47:37.221Z,99.99
2019-02-14T08:48:45.272Z,99.99
2019-02-14T08:49:53.387Z,99.99
2019-02-14T08:51:01.573Z,99.99
2019-02-14T08:52:09.443Z,99.99
2019-02-14T08:53:17.492Z,99.99
2019-02-14T08:54:25.641Z,99.99
2019-02-14T08:55:33.646Z,99.99
2019-02-14T08:56:41.632Z,99.99
2019-02-14T08:57:49.708Z,99.99
2019-02-14T08:58:57.789Z,99.99
2019-02-14T09:00:05.817Z,99.99
2019-02-14T09:01:13.860Z,99.99
2019-02-14T09:02:21.915Z,99.99
2019-02-14T09:03:29.971Z,99.99
2019-02-14T09:04:38.039Z,99.99
2019-02-14T09:05:46.104Z,99.99
2019-02-14T09:06:54.157Z,99.99
2019-02-14T09:08:02.770Z,99.99
2019-02-14T09:09:10.400Z,99.99
2019-02-14T09:10:18.312Z,99.99
2019-02-14T09:11:26.373Z,99.99
2019-02-14T09:12:35.600Z,99.99
2019-02-14T09:13:42.460Z,99.99
2019-02-14T09:14:50.523Z,99.99
2019-02-14T09:15:58.591Z,99.99
2019-02-14T09:17:06.639Z,99.99
2019-02-14T09:18:14.693Z,99.99
2019-02-14T09:19:22.750Z,99.99
2019-02-14T09:20:30.792Z,99.99
2019-02-14T09:21:38.858Z,99.99
2019-02-14T09:22:46.910Z,99.99
2019-02-14T09:23:54.970Z,99.99
2019-02-14T09:25:03.035Z,99.99
2019-02-14T09:26:11.084Z,99.99
2019-02-14T09:27:19.140Z,99.99
2019-02-14T09:28:27.537Z,99.99
2019-02-14T09:29:35.261Z,99.99
2019-02-14T09:30:43.307Z,99.99
2019-02-14T09:31:51.351Z,99.99
2019-02-14T09:32:59.416Z,99.99
2019-02-14T09:34:07.466Z,99.99
2019-02-14T09:35:15.980Z,99.99
2019-02-14T09:36:23.703Z,99.99
2019-02-14T09:37:31.937Z,99.99
2019-02-14T09:38:39.691Z,99.99
2019-02-14T09:39:47.753Z,99.99
2019-02-14T09:40:55.993Z,99.99
2019-02-14T09:42:04.061Z,99.99
2019-02-14T09:43:11.906Z,99.99
2019-02-14T09:44:20.584Z,99.99
2019-02-14T09:45:28.446Z,99.99
2019-02-14T09:46:36.090Z,99.99
2019-02-14T09:47:44.471Z,99.99
2019-02-14T09:48:52.195Z,99.99
2019-02-14T09:50:00.287Z,99.99
2019-02-14T09:51:08.377Z,99.99
2019-02-14T09:52:16.359Z,99.99
2019-02-14T09:53:25.160Z,99.99
2019-02-14T09:54:32.900Z,99.99
2019-02-14T09:55:40.555Z,99.99
2019-02-14T09:56:48.653Z,99.99
2019-02-14T09:57:56.793Z,99.99
2019-02-14T09:59:04.731Z,99.99
2019-02-14T10:00:12.783Z,99.99
2019-02-14T10:01:20.842Z,99.99
2019-02-14T10:02:28.880Z,99.99
2019-02-14T10:03:36.924Z,99.99
2019-02-14T10:04:45.027Z,99.99
2019-02-14T10:05:53.061Z,99.99
2019-02-14T10:07:01.124Z,99.99
2019-02-14T10:08:12.621Z,99.99
2019-02-14T10:09:17.402Z,99.99
2019-02-14T10:10:25.261Z,99.99
2019-02-14T10:11:33.594Z,99.99
2019-02-14T10:12:41.363Z,99.99
2019-02-14T10:13:49.430Z,99.99
2019-02-14T10:14:57.500Z,99.99
2019-02-14T10:16:05.538Z,99.99
2019-02-14T10:17:21.976Z,99.99
2019-02-14T10:18:21.678Z,99.99
2019-02-14T10:19:30.038Z,99.99
2019-02-14T10:20:39.393Z,99.99
2019-02-14T10:21:46.396Z,99.99
2019-02-14T10:22:54.141Z,99.99
2019-02-14T10:24:02.135Z,99.99
2019-02-14T10:25:10.003Z,99.99
2019-02-14T10:26:18.397Z,99.99
2019-02-14T10:27:26.225Z,99.99
2019-02-14T10:28:34.215Z,99.99
2019-02-14T10:29:42.410Z,99.99
2019-02-14T10:30:50.283Z,99.99
2019-02-14T10:31:58.356Z,99.99
2019-02-14T10:33:06.627Z,99.99
2019-02-14T10:34:14.925Z,99.99
2019-02-14T10:35:22.505Z,99.99
2019-02-14T10:36:30.575Z,99.99
2019-02-14T10:37:38.905Z,99.99
2019-02-14T10:38:46.788Z,99.99
2019-02-14T10:39:55.086Z,99.99
2019-02-14T10:41:02.983Z,99.99
2019-02-14T10:42:10.862Z,99.99
2019-02-14T10:43:18.924Z,99.99
2019-02-14T10:44:27.008Z,99.99
2019-02-14T10:45:35.103Z,99.99
2019-02-14T10:46:43.101Z,99.99
2019-02-14T10:47:51.353Z,99.99
2019-02-14T10:48:59.203Z,99.99
2019-02-14T10:50:07.265Z,99.99
2019-02-14T10:51:15.328Z,99.99
2019-02-14T10:52:23.377Z,99.99
2019-02-14T10:53:31.424Z,99.99
2019-02-14T10:54:39.502Z,99.99
2019-02-14T10:55:47.542Z,99.99
2019-02-14T10:56:55.608Z,99.99
2019-02-14T10:58:03.708Z,99.99
2019-02-14T10:59:11.702Z,99.99
2019-02-14T11:00:19.790Z,99.99
2019-02-14T11:01:27.850Z,99.99
2019-02-14T11:02:35.905Z,99.99
2019-02-14T11:03:43.951Z,99.99
2019-02-14T11:04:51.999Z,99.99
2019-02-14T11:06:00.086Z,99.99
2019-02-14T11:07:08.129Z,99.99
2019-02-14T11:08:16.198Z,99.99
2019-02-14T11:09:24.247Z,99.99
2019-02-14T11:10:32.291Z,93.23
2019-02-14T11:11:40.368Z,97.69
2019-02-14T11:12:48.429Z,99.99
2019-02-14T11:13:56.491Z,99.99
2019-02-14T11:15:04.559Z,97.98
2019-02-14T11:16:12.602Z,99.99
2019-02-14T11:17:20.673Z,99.99
2019-02-14T11:18:28.710Z,99.99
2019-02-14T11:19:36.783Z,99.99
2019-02-14T11:20:45.311Z,99.99
2019-02-14T11:21:52.988Z,99.99
2019-02-14T11:23:00.949Z,99.99
2019-02-14T11:24:17.267Z,99.99
2019-02-14T11:25:17.066Z,99.99
2019-02-14T11:26:25.120Z,99.99
2019-02-14T11:27:33.187Z,99.99
2019-02-14T11:28:41.225Z,99.99
2019-02-14T11:29:49.293Z,99.99
2019-02-14T11:30:57.369Z,99.55
2019-02-14T11:32:05.722Z,98.03
2019-02-14T11:33:13.494Z,99.99
2019-02-14T11:34:21.510Z,92.32
2019-02-14T11:35:29.599Z,82.32
2019-02-14T11:36:37.916Z,84.52
2019-02-14T11:37:45.709Z,88.23
2019-02-14T11:38:54.423Z,96.79
2019-02-14T11:40:01.819Z,93.65
2019-02-14T11:41:09.895Z,99.99
2019-02-14T11:42:18.229Z,94.70
2019-02-14T11:43:26.066Z,84.70
2019-02-14T11:44:39.705Z,98.22
2019-02-14T11:45:42.113Z,87.27
2019-02-14T11:46:51.640Z,84.89
2019-02-14T11:47:58.263Z,87.94
2019-02-14T11:49:06.314Z,87.75
2019-02-14T11:50:14.387Z,93.94
2019-02-14T11:51:22.432Z,89.56
2019-02-14T11:52:30.549Z,90.03
2019-02-14T11:53:38.554Z,95.94
2019-02-14T11:54:46.614Z,90.61
2019-02-14T11:55:54.978Z,87.85
2019-02-14T11:57:02.762Z,91.46
2019-02-14T11:58:10.809Z,85.75
2019-02-14T11:59:18.851Z,92.70
2019-02-14T12:00:26.926Z,94.98
2019-02-14T12:01:34.974Z,92.70
2019-02-14T12:02:43.045Z,99.84
2019-02-14T12:03:51.103Z,87.56
2019-02-14T12:04:59.206Z,89.84
2019-02-14T12:06:07.207Z,90.22
2019-02-14T12:07:15.271Z,96.31
2019-02-14T12:08:23.370Z,98.03
2019-02-14T12:09:32.201Z,91.56
2019-02-14T12:10:39.693Z,91.75
2019-02-14T12:11:47.530Z,90.13
2019-02-14T12:12:55.569Z,99.98
2019-02-14T12:14:03.629Z,98.03
2019-02-14T12:15:11.681Z,93.37
2019-02-14T12:16:19.743Z,93.51
2019-02-14T12:17:27.801Z,84.46
2019-02-14T12:18:35.872Z,97.74
2019-02-14T12:19:43.915Z,94.03
2019-02-14T12:20:51.966Z,96.89
2019-02-14T12:22:00.036Z,96.03
2019-02-14T12:23:08.095Z,91.75
2019-02-14T12:24:16.151Z,95.08
2019-02-14T12:25:24.226Z,96.03
2019-02-14T12:26:32.264Z,96.22
2019-02-14T12:27:40.325Z,95.89
2019-02-14T12:28:48.406Z,93.65
2019-02-14T12:29:56.464Z,89.08
2019-02-14T12:31:04.515Z,92.41
2019-02-14T12:32:12.558Z,84.04
2019-02-14T12:33:20.622Z,85.70
2019-02-14T12:34:28.701Z,99.99
2019-02-14T12:35:36.760Z,91.22
2019-02-14T12:36:44.816Z,85.32
2019-02-14T12:37:52.932Z,83.80
2019-02-14T12:39:08.514Z,88.84
2019-02-14T12:40:08.996Z,82.84
2019-02-14T12:41:17.048Z,87.03
2019-02-14T12:42:25.128Z,83.13
2019-02-14T12:43:33.198Z,94.56
2019-02-14T12:44:41.248Z,99.99
2019-02-14T12:45:49.304Z,91.41
2019-02-14T12:46:57.369Z,79.89
2019-02-14T12:48:05.430Z,81.89
2019-02-14T12:49:13.485Z,85.99
2019-02-14T12:50:21.524Z,93.60
2019-02-14T12:51:29.613Z,91.03
2019-02-14T12:52:37.668Z,99.99
2019-02-14T12:53:45.736Z,87.27
2019-02-14T12:54:53.798Z,79.17
2019-02-14T12:56:01.823Z,79.27
2019-02-14T12:57:09.905Z,85.74
2019-02-14T12:58:17.979Z,80.18
2019-02-14T12:59:26.030Z,82.46
2019-02-14T13:00:34.080Z,87.32
2019-02-14T13:01:42.144Z,79.03
2019-02-14T13:02:50.197Z,77.51
2019-02-14T13:03:58.253Z,82.18
2019-02-14T13:05:06.311Z,81.03
2019-02-14T13:06:14.379Z,79.60
2019-02-14T13:07:22.436Z,75.04
2019-02-14T13:08:30.508Z,74.56
2019-02-14T13:09:38.575Z,75.55
2019-02-14T13:10:46.626Z,79.17
2019-02-14T13:11:54.698Z,80.22
2019-02-14T13:13:02.743Z,81.17
2019-02-14T13:14:10.804Z,81.55
2019-02-14T13:15:18.869Z,80.12
2019-02-14T13:16:26.940Z,82.03
2019-02-14T13:17:34.999Z,80.60
2019-02-14T13:18:43.051Z,81.93
2019-02-14T13:19:51.090Z,80.31
2019-02-14T13:20:59.165Z,81.93
2019-02-14T13:22:07.227Z,81.12
2019-02-14T13:23:15.303Z,72.63
2019-02-14T13:24:23.345Z,73.49
2019-02-14T13:25:31.389Z,75.49
2019-02-14T13:26:39.461Z,84.55
2019-02-14T13:27:47.538Z,76.82
2019-02-14T13:28:55.580Z,76.82
2019-02-14T13:30:03.638Z,75.30
2019-02-14T13:31:11.686Z,75.96
2019-02-14T13:32:19.768Z,77.97
2019-02-14T13:33:27.846Z,76.57
2019-02-14T13:34:35.892Z,74.67
2019-02-14T13:35:43.949Z,70.67
2019-02-14T13:37:00.994Z,73.14
2019-02-14T13:38:00.062Z,72.76
2019-02-14T13:39:08.146Z,74.19
2019-02-14T13:40:16.242Z,68.38
2019-02-14T13:41:30.860Z,69.90
2019-02-14T13:42:32.288Z,72.00
2019-02-14T13:43:40.381Z,69.04
2019-02-14T13:44:48.435Z,65.23
2019-02-14T13:45:56.499Z,68.76
2019-02-14T13:47:04.569Z,70.86
2019-02-14T13:48:12.681Z,72.19
2019-02-14T13:49:20.689Z,69.62
2019-02-14T13:50:28.726Z,70.76
2019-02-14T13:51:36.792Z,70.00
2019-02-14T13:52:44.852Z,71.62
2019-02-14T13:53:53.041Z,66.18
2019-02-14T13:55:00.988Z,67.14
2019-02-14T13:56:09.056Z,68.95
2019-02-14T13:57:17.094Z,67.61
2019-02-14T13:58:25.261Z,66.56
2019-02-14T13:59:33.240Z,66.66
2019-02-14T14:00:41.291Z,67.14
2019-02-14T14:01:49.375Z,65.80
2019-02-14T14:02:57.541Z,63.32
2019-02-14T14:04:05.493Z,63.13
2019-02-14T14:05:13.555Z,64.31
2019-02-14T14:06:21.579Z,64.78
2019-02-14T14:07:39.747Z,65.45
2019-02-14T14:08:37.750Z,63.26
2019-02-14T14:09:45.800Z,62.88
2019-02-14T14:10:53.980Z,63.16
2019-02-14T14:12:01.909Z,65.93
2019-02-14T14:13:09.990Z,66.78
2019-02-14T14:14:18.055Z,64.21
2019-02-14T14:15:26.090Z,63.26
2019-02-14T14:16:34.181Z,62.68
2019-02-14T14:17:42.228Z,62.02
2019-02-14T14:18:50.286Z,63.73
2019-02-14T14:19:58.349Z,64.02
2019-02-14T14:21:06.409Z,63.64
2019-02-14T14:22:14.473Z,64.59
2019-02-14T14:23:22.527Z,63.32
2019-02-14T14:24:30.596Z,64.09
2019-02-14T14:25:39.203Z,64.18
2019-02-14T14:26:46.727Z,63.04
2019-02-14T14:27:54.781Z,62.37
2019-02-14T14:29:02.852Z,63.32
2019-02-14T14:30:10.901Z,64.85
2019-02-14T14:31:18.958Z,65.23
2019-02-14T14:32:27.014Z,64.94
2019-02-14T14:33:35.082Z,65.13
2019-02-14T14:34:43.128Z,63.89
2019-02-14T14:35:51.213Z,62.18